createdAt,value
2023-01-13T00:01:38.634Z,1.40
2023-01-13T00:03:40.578Z,1.30
2023-01-13T00:05:42.186Z,1.33
2023-01-13T00:07:43.876Z,1.35
2023-01-13T00:09:45.464Z,1.40
2023-01-13T00:11:47.575Z,1.27
2023-01-13T00:13:49.224Z,1.20
2023-01-13T00:16:08.407Z,1.20
2023-01-13T00:18:10.174Z,1.20
2023-01-13T00:20:12.065Z,0.93
2023-01-13T00:22:13.657Z,1.13
2023-01-13T00:24:15.483Z,1.00
2023-01-13T00:26:20.362Z,1.27
2023-01-13T00:28:21.955Z,1.00
2023-01-13T00:30:23.550Z,0.77
2023-01-13T00:32:25.310Z,1.13
2023-01-13T00:34:26.904Z,1.02
2023-01-13T00:36:29.365Z,1.08
2023-01-13T00:38:32.909Z,0.90
2023-01-13T00:40:34.655Z,0.98
2023-01-13T00:42:55.112Z,1.17
2023-01-13T00:44:56.824Z,1.17
2023-01-13T00:46:58.438Z,0.98
2023-01-13T00:49:00.066Z,0.95
2023-01-13T00:51:04.001Z,0.90
2023-01-13T00:53:05.634Z,1.00
2023-01-13T00:55:07.564Z,1.33
2023-01-13T00:57:09.500Z,1.05
2023-01-13T00:59:13.226Z,1.00
2023-01-13T01:01:21.151Z,0.95
2023-01-13T01:03:22.864Z,0.80
2023-01-13T01:05:24.728Z,1.00
2023-01-13T01:07:26.338Z,1.02
2023-01-13T01:09:32.647Z,0.88
2023-01-13T01:11:34.788Z,0.95
2023-01-13T01:13:36.957Z,1.10
2023-01-13T01:15:41.658Z,0.90
2023-01-13T01:17:43.263Z,1.05
2023-01-13T01:19:44.846Z,1.02
2023-01-13T01:21:46.456Z,0.70
2023-01-13T01:23:48.056Z,0.90
2023-01-13T01:25:49.707Z,0.90
2023-01-13T01:27:51.306Z,1.02
2023-01-13T01:29:53.043Z,0.63
2023-01-13T01:31:56.775Z,0.80
2023-01-13T01:33:59.381Z,0.80
2023-01-13T01:36:04.417Z,0.60
2023-01-13T01:38:06.131Z,0.82
2023-01-13T01:40:08.542Z,0.98
2023-01-13T01:42:35.898Z,0.90
2023-01-13T01:44:43.291Z,0.90
2023-01-13T01:46:45.019Z,0.85
2023-01-13T01:48:46.705Z,0.77
2023-01-13T01:50:48.333Z,0.70
2023-01-13T01:53:21.747Z,0.95
2023-01-13T01:55:29.515Z,1.00
2023-01-13T01:58:03.522Z,0.73
2023-01-13T02:00:06.475Z,0.95
2023-01-13T02:02:08.921Z,0.77
2023-01-13T02:04:18.597Z,1.02
2023-01-13T02:06:20.248Z,0.70
2023-01-13T02:08:22.225Z,0.50
2023-01-13T02:10:27.597Z,0.70
2023-01-13T02:12:29.456Z,0.70
2023-01-13T02:14:32.242Z,0.80
2023-01-13T02:16:34.011Z,0.93
2023-01-13T02:19:28.139Z,0.60
2023-01-13T02:22:14.856Z,0.70
2023-01-13T02:24:55.660Z,0.73
2023-01-13T02:27:12.156Z,0.70
2023-01-13T02:30:16.248Z,0.52
2023-01-13T02:32:33.716Z,0.80
2023-01-13T02:34:43.351Z,0.75
2023-01-13T02:37:16.323Z,0.60
2023-01-13T02:39:41.523Z,0.80
2023-01-13T02:42:13.208Z,0.70
2023-01-13T02:44:19.789Z,0.68
2023-01-13T02:46:29.319Z,0.70
2023-01-13T02:48:32.208Z,0.70
2023-01-13T02:50:45.424Z,0.63
2023-01-13T02:52:58.556Z,0.60
2023-01-13T02:55:08.658Z,0.80
2023-01-13T02:57:11.888Z,0.70
2023-01-13T02:59:14.279Z,0.73
2023-01-13T03:01:16.812Z,0.63
2023-01-13T03:03:19.066Z,0.93
2023-01-13T03:05:20.733Z,0.70
2023-01-13T03:07:46.048Z,0.50
2023-01-13T03:10:18.032Z,0.60
2023-01-13T03:12:47.029Z,0.63
2023-01-13T03:15:11.384Z,0.70
2023-01-13T03:17:30.427Z,0.60
2023-01-13T03:20:15.577Z,0.80
2023-01-13T03:22:26.992Z,0.80
2023-01-13T03:24:40.827Z,0.40
2023-01-13T03:26:42.457Z,0.63
2023-01-13T03:28:58.283Z,0.55
2023-01-13T03:31:06.372Z,0.50
2023-01-13T03:33:16.935Z,0.63
2023-01-13T03:35:30.699Z,0.52
2023-01-13T03:37:37.227Z,0.70
2023-01-13T03:39:43.358Z,0.70
2023-01-13T03:41:53.048Z,0.65
2023-01-13T03:44:22.069Z,0.52
2023-01-13T03:46:34.454Z,0.52
2023-01-13T03:48:40.181Z,0.52
2023-01-13T03:50:49.626Z,0.60
2023-01-13T03:53:06.557Z,0.90
2023-01-13T03:55:18.768Z,0.70
2023-01-13T03:57:26.620Z,0.40
2023-01-13T03:59:33.326Z,0.60
2023-01-13T04:02:01.754Z,0.60
2023-01-13T04:04:25.857Z,0.50
2023-01-13T04:06:40.444Z,0.50
2023-01-13T04:08:51.124Z,0.60
2023-01-13T04:11:00.272Z,0.50
2023-01-13T04:13:06.879Z,0.75
2023-01-13T04:15:09.437Z,0.70
2023-01-13T04:17:11.514Z,0.80
2023-01-13T04:19:13.132Z,0.47
2023-01-13T04:21:14.825Z,0.40
2023-01-13T04:23:17.939Z,0.50
2023-01-13T04:25:19.538Z,0.43
2023-01-13T04:27:21.159Z,0.50
2023-01-13T04:29:23.186Z,0.70
2023-01-13T04:31:24.877Z,0.47
2023-01-13T04:33:26.704Z,0.50
2023-01-13T04:35:28.304Z,0.40
2023-01-13T04:37:29.895Z,0.50
2023-01-13T04:39:31.520Z,0.50
2023-01-13T04:41:53.159Z,0.40
2023-01-13T04:43:54.814Z,0.45
2023-01-13T04:45:56.501Z,0.50
2023-01-13T04:47:58.320Z,0.70
2023-01-13T04:49:59.970Z,0.47
2023-01-13T04:52:03.730Z,0.40
2023-01-13T04:54:05.553Z,0.50
2023-01-13T04:56:07.529Z,0.57
2023-01-13T04:58:10.665Z,0.60
2023-01-13T05:00:14.829Z,0.80
2023-01-13T05:02:19.774Z,0.60
2023-01-13T05:04:21.540Z,0.50
2023-01-13T05:06:23.209Z,0.75
2023-01-13T05:08:24.877Z,0.60
2023-01-13T05:10:27.211Z,0.90
2023-01-13T05:12:47.568Z,0.52
2023-01-13T05:15:18.549Z,0.60
2023-01-13T05:17:24.744Z,0.68
2023-01-13T05:19:31.814Z,0.70
2023-01-13T05:21:52.223Z,0.80
2023-01-13T05:24:12.632Z,0.60
2023-01-13T05:26:14.288Z,1.30
2023-01-13T05:28:16.255Z,0.77
2023-01-13T05:30:18.818Z,0.57
2023-01-13T05:32:21.284Z,0.57
2023-01-13T05:34:22.931Z,0.80
2023-01-13T05:36:24.536Z,0.60
2023-01-13T05:38:26.236Z,0.52
2023-01-13T05:40:46.761Z,0.95
2023-01-13T05:43:07.179Z,1.10
2023-01-13T05:45:09.763Z,0.53
2023-01-13T05:47:11.401Z,0.75
2023-01-13T05:49:13.335Z,0.70
2023-01-13T05:51:15.115Z,1.52
2023-01-13T05:53:18.139Z,1.00
2023-01-13T05:55:19.802Z,1.10
2023-01-13T05:57:21.429Z,1.30
2023-01-13T05:59:23.024Z,1.10
2023-01-13T06:01:24.762Z,1.00
2023-01-13T06:03:26.446Z,1.10
2023-01-13T06:05:29.073Z,1.08
2023-01-13T06:07:30.710Z,0.80
2023-01-13T06:09:32.354Z,1.30
2023-01-13T06:11:34.001Z,0.73
2023-01-13T06:13:35.673Z,0.80
2023-01-13T06:15:37.332Z,0.80
2023-01-13T06:17:39.086Z,0.80
2023-01-13T06:19:41.451Z,0.70
2023-01-13T06:21:46.213Z,0.80
2023-01-13T06:23:47.830Z,0.60
2023-01-13T06:26:02.878Z,0.85
2023-01-13T06:28:04.739Z,0.60
2023-01-13T06:30:06.923Z,0.90
2023-01-13T06:32:32.313Z,0.45
2023-01-13T06:34:35.462Z,0.52
2023-01-13T06:36:45.800Z,0.50
2023-01-13T06:38:52.101Z,0.90
2023-01-13T06:40:54.632Z,0.73
2023-01-13T06:43:16.562Z,0.43
2023-01-13T06:45:18.994Z,1.08
2023-01-13T06:47:22.346Z,0.90
2023-01-13T06:49:24.170Z,0.63
2023-01-13T06:51:25.901Z,1.05
2023-01-13T06:53:27.634Z,0.65
2023-01-13T06:55:29.284Z,0.40
2023-01-13T06:57:30.875Z,0.70
2023-01-13T06:59:35.141Z,0.93
2023-01-13T07:01:36.912Z,0.63
2023-01-13T07:03:39.931Z,0.63
2023-01-13T07:05:44.072Z,0.63
2023-01-13T07:07:46.156Z,0.75
2023-01-13T07:09:47.768Z,0.95
2023-01-13T07:11:49.791Z,0.80
2023-01-13T07:14:09.964Z,0.52
2023-01-13T07:16:11.638Z,0.85
2023-01-13T07:18:13.355Z,0.70
2023-01-13T07:20:16.146Z,0.60
2023-01-13T07:22:17.838Z,0.40
2023-01-13T07:24:20.165Z,0.65
2023-01-13T07:26:21.856Z,0.43
2023-01-13T07:28:24.690Z,0.60
2023-01-13T07:30:26.355Z,0.63
2023-01-13T07:32:28.039Z,0.50
2023-01-13T07:34:29.748Z,0.68
2023-01-13T07:36:31.392Z,0.70
2023-01-13T07:38:33.982Z,0.70
2023-01-13T07:40:35.880Z,0.52
2023-01-13T07:42:57.320Z,0.40
2023-01-13T07:44:59.153Z,0.55
2023-01-13T07:47:00.822Z,0.45
2023-01-13T07:49:02.982Z,0.40
2023-01-13T07:51:12.613Z,0.70
2023-01-13T07:53:14.266Z,0.52
2023-01-13T07:55:16.077Z,0.68
2023-01-13T07:57:18.049Z,0.63
2023-01-13T07:59:19.643Z,0.57
2023-01-13T08:01:22.429Z,0.65
2023-01-13T08:03:24.624Z,0.40
2023-01-13T08:05:26.496Z,0.50
2023-01-13T08:07:28.216Z,0.43
2023-01-13T08:09:29.880Z,0.60
2023-01-13T08:11:31.499Z,0.43
2023-01-13T08:13:33.807Z,0.55
2023-01-13T08:15:35.428Z,0.70
2023-01-13T08:17:37.156Z,0.40
2023-01-13T08:19:38.830Z,0.43
2023-01-13T08:21:40.589Z,0.57
2023-01-13T08:23:44.286Z,0.47
2023-01-13T08:25:46.140Z,0.50
2023-01-13T08:27:49.469Z,0.63
2023-01-13T08:29:51.183Z,0.63
2023-01-13T08:31:52.901Z,0.60
2023-01-13T08:33:54.578Z,0.63
2023-01-13T08:35:56.518Z,0.50
2023-01-13T08:37:58.156Z,0.68
2023-01-13T08:39:59.870Z,0.35
2023-01-13T08:42:04.179Z,0.30
2023-01-13T08:44:06.727Z,0.40
2023-01-13T08:46:08.526Z,0.80
2023-01-13T08:48:10.261Z,0.40
2023-01-13T08:50:12.936Z,0.93
2023-01-13T08:52:15.326Z,0.40
2023-01-13T08:54:17.825Z,0.30
2023-01-13T08:56:19.596Z,0.32
2023-01-13T08:58:21.204Z,0.40
2023-01-13T09:00:23.104Z,0.30
2023-01-13T09:02:25.384Z,0.68
2023-01-13T09:04:28.993Z,0.30
2023-01-13T09:06:30.714Z,0.50
2023-01-13T09:08:32.405Z,0.60
2023-01-13T09:10:35.564Z,0.30
2023-01-13T09:12:55.914Z,0.50
2023-01-13T09:14:57.747Z,0.47
2023-01-13T09:17:00.331Z,0.60
2023-01-13T09:19:01.981Z,0.50
2023-01-13T09:21:03.959Z,0.40
2023-01-13T09:23:08.842Z,0.47
2023-01-13T09:25:12.655Z,0.50
2023-01-13T09:27:15.572Z,0.50
2023-01-13T09:29:17.644Z,0.50
2023-01-13T09:31:19.342Z,0.60
2023-01-13T09:33:39.883Z,0.55
2023-01-13T09:35:41.570Z,0.57
2023-01-13T09:37:43.229Z,1.10
2023-01-13T09:39:44.865Z,0.73
2023-01-13T09:42:15.120Z,0.47
2023-01-13T09:44:22.713Z,0.73
2023-01-13T09:46:47.610Z,0.52
2023-01-13T09:48:52.311Z,0.40
2023-01-13T09:51:10.065Z,0.60
2023-01-13T09:53:19.054Z,0.65
2023-01-13T09:55:34.647Z,0.60
2023-01-13T09:57:40.166Z,0.32
2023-01-13T09:59:42.782Z,0.40
2023-01-13T10:02:15.251Z,0.70
2023-01-13T10:04:17.045Z,0.50
2023-01-13T10:06:34.835Z,0.40
2023-01-13T10:08:42.865Z,0.70
2023-01-13T10:10:55.296Z,0.30
2023-01-13T10:13:15.212Z,0.40
2023-01-13T10:15:23.184Z,0.43
2023-01-13T10:17:34.160Z,0.50
2023-01-13T10:19:48.735Z,0.65
2023-01-13T10:22:17.621Z,0.45
2023-01-13T10:24:47.028Z,0.55
2023-01-13T10:27:07.810Z,0.70
2023-01-13T10:29:22.038Z,0.70
2023-01-13T10:31:25.618Z,1.17
2023-01-13T10:33:30.880Z,1.75
2023-01-13T10:35:50.985Z,1.73
2023-01-13T10:37:57.561Z,1.52
2023-01-13T10:40:02.256Z,2.17
2023-01-13T10:42:06.363Z,1.48
2023-01-13T10:44:17.304Z,1.45
2023-01-13T10:46:20.574Z,1.70
2023-01-13T10:48:22.480Z,1.67
2023-01-13T10:50:29.399Z,1.58
2023-01-13T10:52:33.640Z,1.23
2023-01-13T10:54:36.513Z,1.60
2023-01-13T10:56:39.907Z,1.75
2023-01-13T10:58:41.541Z,2.28
2023-01-13T11:00:43.576Z,1.73
2023-01-13T11:02:45.298Z,1.50
2023-01-13T11:05:03.729Z,1.60
2023-01-13T11:07:18.196Z,2.63
2023-01-13T11:09:22.505Z,2.70
2023-01-13T11:11:40.791Z,2.70
2023-01-13T11:14:04.040Z,2.60
2023-01-13T11:16:13.141Z,2.40
2023-01-13T11:18:33.260Z,2.60
2023-01-13T11:20:41.162Z,2.42
2023-01-13T11:22:51.988Z,3.10
2023-01-13T11:25:03.230Z,3.72
2023-01-13T11:29:39.911Z,3.17
2023-01-13T11:31:50.110Z,3.47
2023-01-13T11:34:08.070Z,3.07
2023-01-13T11:36:20.493Z,3.63
2023-01-13T11:38:40.199Z,3.40
2023-01-13T11:40:46.885Z,2.65
2023-01-13T11:43:03.940Z,3.95
2023-01-13T11:45:17.902Z,2.85
2023-01-13T11:47:23.552Z,3.00
2023-01-13T11:49:31.023Z,2.80
2023-01-13T11:51:43.031Z,3.08
2023-01-13T11:54:10.053Z,3.15
2023-01-13T11:56:56.133Z,2.75
2023-01-13T11:59:12.769Z,2.55
2023-01-13T12:01:45.112Z,2.47
2023-01-13T12:03:58.033Z,2.65
2023-01-13T12:06:29.969Z,2.80
2023-01-13T12:08:53.284Z,2.42
2023-01-13T12:11:13.354Z,2.30
2023-01-13T12:13:29.230Z,2.58
2023-01-13T12:15:36.160Z,2.78
2023-01-13T12:17:52.755Z,3.03
2023-01-13T12:19:55.079Z,2.25
2023-01-13T12:22:11.466Z,1.85
2023-01-13T12:24:39.085Z,2.10
2023-01-13T12:26:58.453Z,2.38
2023-01-13T12:29:06.248Z,1.98
2023-01-13T12:31:09.448Z,1.73
2023-01-13T12:33:39.871Z,2.10
2023-01-13T12:35:56.723Z,1.83
2023-01-13T12:38:14.598Z,2.03
2023-01-13T12:40:56.071Z,1.83
2023-01-13T12:45:27.156Z,1.70
2023-01-13T12:47:46.241Z,1.50
2023-01-13T12:49:47.908Z,1.45
2023-01-13T12:51:52.560Z,1.38
2023-01-13T12:53:56.289Z,1.73
2023-01-13T12:56:32.162Z,1.70
2023-01-13T12:58:33.799Z,1.75
2023-01-13T13:00:38.200Z,1.75
2023-01-13T13:02:42.132Z,1.38
2023-01-13T13:04:54.020Z,1.58
2023-01-13T13:07:08.381Z,1.30
2023-01-13T13:09:38.254Z,1.45
2023-01-13T13:11:57.953Z,1.30
2023-01-13T13:14:01.163Z,1.58
2023-01-13T13:16:28.713Z,1.25
2023-01-13T13:18:30.469Z,1.50
2023-01-13T13:20:54.178Z,1.40
2023-01-13T13:22:55.929Z,1.15
2023-01-13T13:24:57.590Z,1.23
2023-01-13T13:27:26.089Z,1.30
2023-01-13T13:30:24.855Z,1.30
2023-01-13T13:32:45.056Z,1.20
2023-01-13T13:35:01.902Z,1.52
2023-01-13T13:37:28.790Z,1.38
2023-01-13T13:39:50.557Z,1.25
2023-01-13T13:42:19.667Z,1.27
2023-01-13T13:44:46.002Z,1.02
2023-01-13T13:46:48.753Z,1.65
2023-01-13T13:48:53.832Z,1.25
2023-01-13T13:51:02.056Z,1.10
2023-01-13T13:53:08.324Z,1.27
2023-01-13T13:55:20.133Z,1.15
2023-01-13T13:57:34.959Z,1.50
2023-01-13T13:59:39.700Z,1.10
2023-01-13T14:01:45.167Z,1.52
2023-01-13T14:03:46.946Z,1.40
2023-01-13T14:06:04.109Z,1.67
2023-01-13T14:08:16.741Z,1.70
2023-01-13T14:10:27.094Z,1.40
2023-01-13T14:12:30.274Z,1.77
2023-01-13T14:14:31.986Z,1.40
2023-01-13T14:16:37.465Z,1.80
2023-01-13T14:18:48.452Z,2.03
2023-01-13T14:21:01.448Z,1.45
2023-01-13T14:23:05.618Z,1.50
2023-01-13T14:25:34.867Z,1.55
2023-01-13T14:27:43.146Z,1.30
2023-01-13T14:29:45.477Z,1.42
2023-01-13T14:31:49.255Z,1.15
2023-01-13T14:33:54.547Z,1.27
2023-01-13T14:36:33.018Z,1.73
2023-01-13T14:38:34.651Z,1.77
2023-01-13T14:40:36.219Z,1.60
2023-01-13T14:42:37.851Z,1.67
2023-01-13T14:44:45.628Z,1.42
2023-01-13T14:46:47.540Z,1.30
2023-01-13T14:49:00.456Z,1.40
2023-01-13T14:51:05.769Z,1.40
2023-01-13T14:53:34.924Z,1.40
2023-01-13T14:55:38.531Z,1.20
2023-01-13T14:57:41.730Z,1.40
2023-01-13T14:59:51.489Z,0.90
2023-01-13T15:01:54.657Z,1.10
2023-01-13T15:04:26.472Z,1.23
2023-01-13T15:06:28.105Z,1.17
2023-01-13T15:08:34.793Z,1.40
2023-01-13T15:10:46.722Z,0.73
2023-01-13T15:12:52.328Z,0.90
2023-01-13T15:14:54.059Z,1.35
2023-01-13T15:16:56.363Z,1.33
2023-01-13T15:18:58.369Z,1.17
2023-01-13T15:21:00.080Z,1.20
2023-01-13T15:23:01.769Z,1.10
2023-01-13T15:25:03.674Z,1.13
2023-01-13T15:27:17.605Z,1.02
2023-01-13T15:29:19.801Z,1.30
2023-01-13T15:31:22.398Z,1.05
2023-01-13T15:33:24.029Z,1.48
2023-01-13T15:35:28.500Z,1.40
2023-01-13T15:37:30.112Z,1.10
2023-01-13T15:39:31.739Z,1.00
2023-01-13T15:41:52.000Z,1.75
2023-01-13T15:44:12.493Z,1.43
2023-01-13T15:46:36.300Z,1.50
2023-01-13T15:48:37.969Z,2.75
2023-01-13T15:50:40.011Z,2.45
2023-01-13T15:52:41.859Z,2.33
2023-01-13T15:54:43.472Z,2.13
2023-01-13T15:56:46.163Z,2.70
2023-01-13T15:58:47.814Z,2.78
2023-01-13T16:00:49.496Z,2.15
2023-01-13T16:02:51.543Z,1.98
2023-01-13T16:04:54.477Z,2.08
2023-01-13T16:06:56.213Z,1.92
2023-01-13T16:08:58.023Z,2.65
2023-01-13T16:10:59.681Z,1.92
2023-01-13T16:13:02.403Z,2.05
2023-01-13T16:15:04.304Z,1.98
2023-01-13T16:17:17.969Z,1.80
2023-01-13T16:19:19.699Z,1.65
2023-01-13T16:21:24.544Z,1.92
2023-01-13T16:23:26.197Z,2.28
2023-01-13T16:25:28.331Z,1.60
2023-01-13T16:27:29.959Z,1.63
2023-01-13T16:29:31.583Z,1.70
2023-01-13T16:31:34.427Z,1.95
2023-01-13T16:33:36.065Z,2.03
2023-01-13T16:35:37.744Z,1.50
2023-01-13T16:37:59.786Z,1.77
2023-01-13T16:40:02.472Z,2.00
2023-01-13T16:42:04.293Z,1.88
2023-01-13T16:44:06.262Z,1.60
2023-01-13T16:46:19.966Z,1.25
2023-01-13T16:48:22.739Z,1.42
2023-01-13T16:50:27.100Z,1.92
2023-01-13T16:52:28.727Z,1.95
2023-01-13T16:54:30.348Z,1.58
2023-01-13T16:56:36.537Z,1.52
2023-01-13T16:58:38.193Z,2.25
2023-01-13T17:00:39.887Z,1.77
2023-01-13T17:02:41.738Z,1.83
2023-01-13T17:04:43.483Z,1.60
2023-01-13T17:06:54.285Z,1.90
2023-01-13T17:09:01.321Z,1.95
2023-01-13T17:11:03.006Z,2.28
2023-01-13T17:13:15.664Z,2.03
2023-01-13T17:15:19.532Z,1.67
2023-01-13T17:17:27.682Z,2.17
2023-01-13T17:19:29.356Z,2.30
2023-01-13T17:21:31.034Z,2.30
2023-01-13T17:23:33.391Z,2.70
2023-01-13T17:25:35.028Z,1.90
2023-01-13T17:27:36.731Z,2.38
2023-01-13T17:29:38.878Z,2.70
2023-01-13T17:31:40.716Z,2.35
2023-01-13T17:33:42.350Z,2.40
2023-01-13T17:35:43.979Z,2.08
2023-01-13T17:37:45.973Z,2.03
2023-01-13T17:39:48.406Z,3.05
2023-01-13T17:41:51.140Z,2.20
2023-01-13T17:43:53.526Z,2.30
2023-01-13T17:45:55.205Z,1.92
2023-01-13T17:48:00.317Z,2.38
2023-01-13T17:50:03.981Z,2.38
2023-01-13T17:52:06.413Z,2.20
2023-01-13T17:54:12.371Z,2.45
2023-01-13T17:56:15.576Z,2.45
2023-01-13T17:58:17.373Z,2.25
2023-01-13T18:00:19.290Z,2.30
2023-01-13T18:02:21.164Z,2.40
2023-01-13T18:04:27.483Z,2.45
2023-01-13T18:06:29.435Z,2.38
2023-01-13T18:08:31.116Z,2.20
2023-01-13T18:10:33.923Z,2.40
2023-01-13T18:12:35.583Z,2.55
2023-01-13T18:14:37.220Z,2.33
2023-01-13T18:16:39.304Z,2.35
2023-01-13T18:18:43.277Z,2.17
2023-01-13T18:21:03.745Z,2.15
2023-01-13T18:23:24.068Z,1.75
2023-01-13T18:25:44.476Z,2.63
2023-01-13T18:27:46.194Z,2.17
2023-01-13T18:29:49.318Z,2.22
2023-01-13T18:31:52.451Z,2.30
2023-01-13T18:33:54.177Z,1.92
2023-01-13T18:35:55.819Z,2.05
2023-01-13T18:37:57.476Z,2.00
2023-01-13T18:39:59.101Z,2.38
2023-01-13T18:42:19.629Z,1.90
2023-01-13T18:44:21.572Z,2.08
2023-01-13T18:46:23.315Z,1.83
2023-01-13T18:48:25.168Z,2.63
2023-01-13T18:50:27.981Z,2.83
2023-01-13T18:52:29.745Z,1.90
2023-01-13T18:54:31.412Z,2.22
2023-01-13T18:56:33.116Z,2.38
2023-01-13T18:58:34.720Z,1.67
2023-01-13T19:00:37.595Z,1.38
2023-01-13T19:02:39.546Z,1.50
2023-01-13T19:04:41.338Z,1.85
2023-01-13T19:06:49.203Z,2.10
2023-01-13T19:08:53.210Z,1.65
2023-01-13T19:10:56.223Z,2.40
2023-01-13T19:12:57.916Z,1.80
2023-01-13T19:15:00.934Z,1.48
2023-01-13T19:17:11.147Z,1.50
2023-01-13T19:19:12.757Z,1.60
2023-01-13T19:21:14.834Z,1.60
2023-01-13T19:23:16.499Z,1.48
2023-01-13T19:25:18.238Z,1.55
2023-01-13T19:27:20.903Z,1.42
2023-01-13T19:29:22.623Z,1.90
2023-01-13T19:31:24.350Z,1.17
2023-01-13T19:33:31.699Z,1.60
2023-01-13T19:35:33.487Z,1.30
2023-01-13T19:37:36.806Z,1.40
2023-01-13T19:39:38.923Z,1.50
2023-01-13T19:41:59.245Z,1.33
2023-01-13T19:44:19.596Z,1.30
2023-01-13T19:46:21.627Z,1.20
2023-01-13T19:48:23.362Z,1.35
2023-01-13T19:50:25.409Z,1.48
2023-01-13T19:52:27.050Z,1.10
2023-01-13T19:54:28.852Z,1.20
2023-01-13T19:56:30.852Z,1.73
2023-01-13T19:58:32.947Z,1.40
2023-01-13T20:00:34.841Z,1.50
2023-01-13T20:02:36.974Z,1.35
2023-01-13T20:04:38.778Z,1.60
2023-01-13T20:06:41.286Z,1.63
2023-01-13T20:08:45.945Z,1.80
2023-01-13T20:10:48.675Z,1.38
2023-01-13T20:12:50.318Z,1.42
2023-01-13T20:14:52.621Z,1.90
2023-01-13T20:16:54.336Z,1.20
2023-01-13T20:18:56.823Z,1.20
2023-01-13T20:21:03.849Z,1.40
2023-01-13T20:23:05.580Z,0.90
2023-01-13T20:25:07.985Z,1.05
2023-01-13T20:27:10.100Z,1.08
2023-01-13T20:29:12.094Z,1.20
2023-01-13T20:31:14.778Z,1.48
2023-01-13T20:33:16.586Z,1.20
2023-01-13T20:35:18.405Z,1.10
2023-01-13T20:37:20.089Z,1.10
2023-01-13T20:39:26.191Z,0.90
2023-01-13T20:41:46.490Z,1.70
2023-01-13T20:43:52.132Z,1.27
2023-01-13T20:45:54.256Z,1.05
2023-01-13T20:47:55.935Z,1.15
2023-01-13T20:49:58.843Z,1.30
2023-01-13T20:52:00.452Z,1.05
2023-01-13T20:54:02.156Z,1.25
2023-01-13T20:56:08.244Z,1.35
2023-01-13T20:58:09.845Z,1.10
2023-01-13T21:00:11.780Z,1.40
2023-01-13T21:02:15.287Z,1.08
2023-01-13T21:04:16.969Z,1.15
2023-01-13T21:06:20.390Z,1.08
2023-01-13T21:08:22.007Z,1.10
2023-01-13T21:10:23.596Z,1.08
2023-01-13T21:12:43.700Z,1.42
2023-01-13T21:15:04.224Z,1.30
2023-01-13T21:17:07.034Z,1.13
2023-01-13T21:19:10.547Z,1.25
2023-01-13T21:21:12.268Z,0.98
2023-01-13T21:23:13.907Z,1.38
2023-01-13T21:25:16.739Z,1.08
2023-01-13T21:27:18.427Z,1.08
2023-01-13T21:29:20.136Z,1.10
2023-01-13T21:31:21.828Z,0.70
2023-01-13T21:33:23.459Z,1.10
2023-01-13T21:35:25.130Z,1.20
2023-01-13T21:37:26.767Z,1.02
2023-01-13T21:39:28.414Z,1.15
2023-01-13T21:41:48.635Z,1.00
2023-01-13T21:44:09.037Z,1.08
2023-01-13T21:46:31.846Z,1.15
2023-01-13T21:48:33.635Z,1.17
2023-01-13T21:50:37.768Z,1.40
2023-01-13T21:52:42.584Z,0.70
2023-01-13T21:55:02.763Z,1.10
2023-01-13T21:57:04.435Z,1.15
2023-01-13T21:59:06.072Z,1.13
2023-01-13T22:01:09.706Z,1.00
2023-01-13T22:03:15.018Z,0.85
2023-01-13T22:05:18.674Z,1.13
2023-01-13T22:07:20.863Z,0.93
2023-01-13T22:09:22.524Z,1.08
2023-01-13T22:11:24.150Z,1.33
2023-01-13T22:13:47.630Z,0.80
2023-01-13T22:15:49.836Z,1.10
2023-01-13T22:17:53.478Z,0.80
2023-01-13T22:19:58.081Z,1.10
2023-01-13T22:21:59.694Z,1.20
2023-01-13T22:24:02.195Z,0.93
2023-01-13T22:26:05.532Z,0.80
2023-01-13T22:28:09.083Z,0.98
2023-01-13T22:30:18.016Z,0.85
2023-01-13T22:32:20.673Z,0.90
2023-01-13T22:34:23.007Z,1.05
2023-01-13T22:36:24.690Z,1.00
2023-01-13T22:38:26.326Z,1.05
2023-01-13T22:40:27.975Z,0.80
2023-01-13T22:42:29.702Z,0.88
2023-01-13T22:44:31.910Z,1.13
2023-01-13T22:46:33.642Z,0.70
2023-01-13T22:48:35.913Z,1.00
2023-01-13T22:50:37.643Z,0.93
2023-01-13T22:52:39.576Z,0.80
2023-01-13T22:54:41.329Z,0.80
2023-01-13T22:56:42.992Z,1.10
2023-01-13T22:58:44.889Z,0.90
2023-01-13T23:00:46.815Z,0.90
2023-01-13T23:02:48.632Z,0.88
2023-01-13T23:04:50.519Z,0.93
2023-01-13T23:06:52.278Z,0.88
2023-01-13T23:08:54.589Z,1.17
2023-01-13T23:11:23.981Z,1.20
2023-01-13T23:13:25.632Z,0.80
2023-01-13T23:15:27.405Z,1.13
2023-01-13T23:17:29.047Z,0.93
2023-01-13T23:19:30.650Z,0.70
2023-01-13T23:21:36.039Z,0.98
2023-01-13T23:23:38.039Z,0.80
2023-01-13T23:25:39.742Z,1.25
2023-01-13T23:27:41.436Z,1.00
2023-01-13T23:29:43.045Z,0.80
2023-01-13T23:31:44.670Z,0.82
2023-01-13T23:33:46.580Z,0.85
2023-01-13T23:35:59.476Z,0.80
2023-01-13T23:38:01.084Z,1.08
2023-01-13T23:40:02.867Z,0.98
2023-01-13T23:42:04.536Z,0.90
2023-01-13T23:44:06.954Z,1.10
2023-01-13T23:46:12.344Z,0.70
2023-01-13T23:48:14.367Z,0.77
2023-01-13T23:50:16.254Z,0.88
2023-01-13T23:52:18.081Z,0.90
2023-01-13T23:54:19.933Z,0.88
2023-01-13T23:56:26.713Z,0.82
2023-01-13T23:58:29.569Z,1.17
